Welcome to Northern Hawkes Bay. New Zealand.
PWS Header
      nz Flag



Hit Counter


W3C Valid W3C Valid logo


    Wairoa

Select any of the Stations below to visit their websites.










Historic Data from Weather Underground
Select the location of interest below. Wairoa is the default. Please have patience, this Data is slow to load in.
Northern Hawkes Bay Historical Data
Daily Summary for March 22, 2017 Units:  English    Metric   Both
« Previous Day
Next Day »
Daily Weekly Monthly Yearly Custom
  High: Low: Average:
Temperature: 81.9 °F 55.2 °F 67.3 °F
Dew Point: 66.7 °F 54.3 °F 60.4 °F
Humidity: 99% 52% 81%
Wind Speed: 8.3mph 0mph 2.4mph
Wind Gust: 15.9mph - -
Wind- - WNW
Pressure: 30 in 29.8 in -
Precipitation: 0 in    
Historical Graphs
 
 
Tabular Data for March 22, 2017
Time Temperature Dew Point Pressure Wind Wind Speed Wind Gust Humidity Rainfall Rate (Hourly) solar
00:03 56.5 °F 56.1 °F 30 in Calm     99% 0 in 0 W/m2
00:08 56.5 °F 56.1 °F 30 in Calm     99% 0 in 0 W/m2
00:13 56.3 °F 55.9 °F 30 in Calm     99% 0 in 0 W/m2
00:18 56.3 °F 55.9 °F 30 in Calm     99% 0 in 0 W/m2
00:23 56.3 °F 55.9 °F 30 in Calm     99% 0 in 0 W/m2
00:28 56.1 °F 55.9 °F 30 in NNW 3.8 mph 4.5 mph 99% 0 in 0 W/m2
00:33 56.3 °F 55.9 °F 30 in NNW 0.7 mph 5.4 mph 99% 0 in 0 W/m2
00:39 56.3 °F 55.9 °F 30 in Calm   6 mph 99% 0 in 0 W/m2
00:44 56.3 °F 55.9 °F 30 in NW 3.1 mph 6 mph 99% 0 in 0 W/m2
00:50 56.3 °F 55.9 °F 30 in NW 3.1 mph 6.9 mph 99% 0 in 0 W/m2
00:56 56.1 °F 55.9 °F 30 in NNW 3.8 mph 6.9 mph 99% 0 in 0 W/m2
01:01 56.1 °F 55.9 °F 30 in NNW 4.5 mph 6.9 mph 99% 0 in 0 W/m2
01:06 56.1 °F 55.9 °F 30 in NW 2.2 mph 6.9 mph 99% 0 in 0 W/m2
01:11 56.1 °F 55.9 °F 30 in Calm   5.4 mph 99% 0 in 0 W/m2
01:16 56.1 °F 55.9 °F 30 in NNW 2.2 mph 5.4 mph 99% 0 in 0 W/m2
01:21 56.1 °F 55.9 °F 30 in Calm   4.5 mph 99% 0 in 0 W/m2
01:26 55.9 °F 55.8 °F 30 in Calm   3.8 mph 99% 0 in 0 W/m2
01:31 55.9 °F 55.8 °F 30 in Calm     99% 0 in 0 W/m2
01:36 55.9 °F 55.8 °F 30 in Calm   6 mph 99% 0 in 0 W/m2
01:41 55.9 °F 55.8 °F 30 in NNW 2.2 mph 6 mph 99% 0 in 0 W/m2
01:46 55.8 °F 55.6 °F 30 in NNW 3.8 mph 5.4 mph 99% 0 in 0 W/m2
01:51 55.8 °F 55.6 °F 30 in NNW 4.5 mph 6.9 mph 99% 0 in 0 W/m2
01:56 55.8 °F 55.6 °F 30 in NNW 3.8 mph 6.9 mph 99% 0 in 0 W/m2
02:01 55.9 °F 55.8 °F 30 in NNW 3.8 mph 7.6 mph 99% 0 in 0 W/m2
02:06 55.9 °F 55.8 °F 29.9 in NW 3.8 mph 7.6 mph 99% 0 in 0 W/m2
02:11 55.9 °F 55.8 °F 30 in NNW 4.5 mph 7.6 mph 99% 0 in 0 W/m2
02:16 55.9 °F 55.8 °F 29.9 in NNW 3.1 mph 7.6 mph 99% 0 in 0 W/m2
02:21 55.8 °F 55.6 °F 30 in NNW 3.8 mph 6.9 mph 99% 0 in 0 W/m2
02:26 55.8 °F 55.6 °F 29.9 in North 3.1 mph 6.9 mph 99% 0 in 0 W/m2
02:31 55.6 °F 55.2 °F 29.9 in NNW 3.8 mph 6.9 mph 99% 0 in 0 W/m2
02:36 55.6 °F 55.2 °F 30 in NNW 2.2 mph 6.9 mph 99% 0 in 0 W/m2
02:41 55.4 °F 55 °F 29.9 in North 2.2 mph 6.9 mph 99% 0 in 0 W/m2
02:46 55.4 °F 55 °F 29.9 in North 3.1 mph 6.9 mph 99% 0 in 0 W/m2
02:51 55.6 °F 55.2 °F 30 in Calm   6.9 mph 99% 0 in 0 W/m2
02:56 55.6 °F 55.2 °F 29.9 in Calm   6 mph 99% 0 in 0 W/m2
03:01 55.6 °F 55.2 °F 29.9 in North 2.2 mph 5.4 mph 99% 0 in 0 W/m2
03:06 55.6 °F 55.2 °F 29.9 in Calm   5.4 mph 99% 0 in 0 W/m2
03:11 55.8 °F 55.6 °F 29.9 in North 2.2 mph 5.4 mph 99% 0 in 0 W/m2
03:16 55.9 °F 55.8 °F 29.9 in North 1.6 mph 5.4 mph 99% 0 in 0 W/m2
03:21 55.9 °F 55.8 °F 29.9 in NNW 3.8 mph 6 mph 99% 0 in 0 W/m2
03:26 55.9 °F 55.8 °F 29.9 in NNW 2.2 mph 7.6 mph 99% 0 in 0 W/m2
03:31 55.9 °F 55.8 °F 29.9 in NNW 3.8 mph 7.6 mph 99% 0 in 0 W/m2
03:36 55.8 °F 55.6 °F 29.9 in NW 1.6 mph 7.6 mph 99% 0 in 0 W/m2
03:41 55.8 °F 55.6 °F 29.9 in NW 3.1 mph 6.9 mph 99% 0 in 0 W/m2
03:46 55.6 °F 55.2 °F 29.9 in Calm   6.9 mph 99% 0 in 0 W/m2
03:51 55.6 °F 55.2 °F 29.9 in Calm   6 mph 99% 0 in 0 W/m2
03:56 55.4 °F 55 °F 29.9 in Calm   5.4 mph 99% 0 in 0 W/m2
04:01 55.4 °F 55 °F 29.9 in Calm   4.5 mph 99% 0 in 0 W/m2
04:06 55.4 °F 55 °F 29.9 in Calm   5.4 mph 99% 0 in 0 W/m2
04:11 55.4 °F 55 °F 29.9 in Calm   5.4 mph 99% 0 in 0 W/m2
04:16 55.2 °F 54.3 °F 29.9 in NW 0.7 mph 3.8 mph 97% 0 in 0 W/m2
04:21 55.2 °F 54.3 °F 29.9 in Calm   3.8 mph 97% 0 in 0 W/m2
04:26 55.2 °F 54.3 °F 29.9 in Calm   3.8 mph 97% 0 in 0 W/m2
04:31 55.2 °F 54.3 °F 29.9 in Calm   3.8 mph 97% 0 in 0 W/m2
04:36 55.2 °F 54.3 °F 29.9 in Calm   3.1 mph 97% 0 in 0 W/m2
04:41 55.2 °F 54.3 °F 29.9 in Calm   4.5 mph 97% 0 in 0 W/m2
04:46 55.4 °F 55 °F 29.9 in Calm   4.5 mph 99% 0 in 0 W/m2
04:51 55.4 °F 55 °F 29.9 in North 4.5 mph 6.9 mph 99% 0 in 0 W/m2
04:56 55.4 °F 55 °F 29.9 in North 0.7 mph 6.9 mph 99% 0 in 0 W/m2
05:01 55.4 °F 55 °F 29.9 in Calm   6.9 mph 99% 0 in 0 W/m2
05:06 55.4 °F 55 °F 29.9 in Calm   5.4 mph 99% 0 in 0 W/m2
05:11 55.6 °F 55.2 °F 29.9 in Calm   0.7 mph 99% 0 in 0 W/m2
05:16 55.4 °F 55 °F 29.9 in Calm   5.4 mph 99% 0 in 0 W/m2
05:22 55.4 °F 55 °F 29.9 in NNW 1.6 mph 7.6 mph 99% 0 in 0 W/m2
05:27 55.2 °F 54.3 °F 29.9 in NNW 3.1 mph 7.6 mph 97% 0 in 0 W/m2
05:32 55.2 °F 54.3 °F 29.9 in NNW 2.2 mph 6.9 mph 97% 0 in 0 W/m2
05:37 55.2 °F 54.3 °F 29.9 in NNW 1.6 mph 6.9 mph 97% 0 in 0 W/m2
05:42 55.2 °F 54.3 °F 29.9 in North 3.1 mph 6.9 mph 97% 0 in 0 W/m2
05:47 55.4 °F 55 °F 29.9 in North 0.7 mph 5.4 mph 99% 0 in 0 W/m2
05:52 55.4 °F 55 °F 29.9 in Calm   5.4 mph 99% 0 in 0 W/m2
05:57 55.6 °F 55.2 °F 29.9 in NNW 1.6 mph 6 mph 99% 0 in 0 W/m2
06:02 55.6 °F 55.2 °F 29.9 in Calm   6 mph 99% 0 in 0 W/m2
06:07 55.8 °F 55.6 °F 29.9 in North 3.8 mph 6.9 mph 99% 0 in 0 W/m2
06:12 55.8 °F 55.6 °F 29.9 in North 3.8 mph 7.6 mph 99% 0 in 0 W/m2
06:17 55.8 °F 55.6 °F 29.9 in North 3.1 mph 7.6 mph 99% 0 in 0 W/m2
06:22 55.8 °F 55.6 °F 29.9 in North 5.4 mph 8.3 mph 99% 0 in 0 W/m2
06:27 55.8 °F 55.2 °F 29.9 in NNW 3.8 mph 9.2 mph 98% 0 in 0 W/m2
06:32 55.8 °F 55.2 °F 29.9 in NNW 6.9 mph 9.8 mph 98% 0 in 0 W/m2
06:37 55.8 °F 55.2 °F 29.9 in NNW 6 mph 9.8 mph 98% 0 in 0 W/m2
06:42 55.8 °F 55.2 °F 29.9 in NNW 3.1 mph 9.8 mph 98% 0 in 0 W/m2
06:48 55.8 °F 55.2 °F 29.9 in NNW 5.4 mph 9.8 mph 98% 0 in 0 W/m2
06:53 55.8 °F 55.2 °F 29.9 in NNW 3.8 mph 9.8 mph 98% 0 in 0 W/m2
06:58 55.8 °F 55.2 °F 29.9 in NNW 5.4 mph 8.3 mph 98% 0 in 0 W/m2
07:03 55.8 °F 55.2 °F 29.9 in NNW 4.5 mph 9.8 mph 98% 0 in 0 W/m2
07:08 55.8 °F 55.2 °F 29.9 in NNW 4.5 mph 9.8 mph 98% 0 in 1 W/m2
07:13 55.9 °F 55.4 °F 29.9 in North 3.1 mph 8.3 mph 98% 0 in 3 W/m2
07:18 55.9 °F 55.4 °F 29.9 in North 4.5 mph 9.2 mph 98% 0 in 5 W/m2
07:23 56.1 °F 55.2 °F 29.9 in North 6 mph 9.2 mph 97% 0 in 9 W/m2
07:28 56.3 °F 55.6 °F 29.9 in NNW 6.9 mph 10.7 mph 97% 0 in 12 W/m2
07:33 56.3 °F 55.6 °F 29.9 in NNW 6.9 mph 10.7 mph 97% 0 in 13 W/m2
07:38 56.5 °F 55.4 °F 29.9 in NW 6.9 mph 11.4 mph 96% 0 in 14 W/m2
07:43 56.7 °F 55.6 °F 29.9 in NNW 4.5 mph 11.4 mph 96% 0 in 22 W/m2
07:48 56.8 °F 55.8 °F 29.9 in North 1.6 mph 9.8 mph 96% 0 in 30 W/m2
07:53 57.2 °F 55.8 °F 29.9 in North 0.7 mph 7.6 mph 95% 0 in 39 W/m2
07:58 57.4 °F 55.8 °F 29.9 in North 1.6 mph 7.6 mph 94% 0 in 37 W/m2
08:03 57.6 °F 55.9 °F 29.9 in North 0.7 mph 6 mph 94% 0 in 40 W/m2
08:08 57.7 °F 55.9 °F 29.9 in Calm   6 mph 94% 0 in 43 W/m2
08:13 57.7 °F 55.9 °F 29.9 in North 4.5 mph 6 mph 94% 0 in 51 W/m2
08:18 57.9 °F 55.9 °F 29.9 in NNW 2.2 mph 6.9 mph 93% 0 in 60 W/m2
08:23 58.1 °F 56.1 °F 29.9 in NNW 3.1 mph 6.9 mph 93% 0 in 98 W/m2
08:28 58.3 °F 56.3 °F 29.9 in North 2.2 mph 6 mph 93% 0 in 77 W/m2
08:33 58.5 °F 56.5 °F 29.9 in NNW 3.1 mph 6 mph 93% 0 in 83 W/m2
08:38 58.8 °F 56.8 °F 29.9 in NNW 3.8 mph 6 mph 93% 0 in 92 W/m2
08:43 59 °F 56.5 °F 29.9 in North 3.8 mph 7.6 mph 91% 0 in 97 W/m2
08:48 59.2 °F 56.7 °F 29.9 in North 2.2 mph 7.6 mph 91% 0 in 101 W/m2
08:53 59.5 °F 56.8 °F 29.9 in NNW 3.1 mph 6 mph 91% 0 in 137 W/m2
08:58 59.9 °F 57 °F 29.9 in NNW 3.8 mph 6.9 mph 90% 0 in 132 W/m2
09:03 60.3 °F 57.4 °F 29.9 in North 3.8 mph 6.9 mph 90% 0 in 136 W/m2
09:08 60.4 °F 57.2 °F 29.9 in NNW 5.4 mph 8.3 mph 89% 0 in 158 W/m2
09:13 60.8 °F 56.8 °F 29.9 in NNW 3.8 mph 8.3 mph 87% 0 in 157 W/m2
09:18 60.8 °F 56.8 °F 29.9 in NNW 3.8 mph 8.3 mph 87% 0 in 133 W/m2
09:23 61 °F 57 °F 29.9 in NNW 6 mph 8.3 mph 87% 0 in 140 W/m2
09:28 61.2 °F 57.4 °F 29.9 in NNW 5.4 mph 9.2 mph 87% 0 in 135 W/m2
09:33 61.2 °F 57.4 °F 29.9 in NNW 5.4 mph 9.2 mph 87% 0 in 127 W/m2
09:38 61.3 °F 57.6 °F 29.9 in North 5.4 mph 8.3 mph 87% 0 in 113 W/m2
09:43 61.5 °F 57.6 °F 29.9 in NNW 6.9 mph 8.3 mph 87% 0 in 135 W/m2
09:48 61.9 °F 57.9 °F 29.9 in NNW 5.4 mph 9.2 mph 87% 0 in 133 W/m2
09:53 62.2 °F 58.3 °F 29.9 in NW 5.4 mph 9.2 mph 87% 0 in 143 W/m2
09:58 62.8 °F 58.5 °F 29.9 in NNW 4.5 mph 8.3 mph 86% 0 in 179 W/m2
10:03 63.1 °F 58.6 °F 29.9 in NNW 2.2 mph 8.3 mph 85% 0 in 141 W/m2
10:08 63.5 °F 58.8 °F 29.9 in NNW 3.1 mph 6.9 mph 85% 0 in 147 W/m2
10:13 64 °F 59.5 °F 29.9 in North 3.1 mph 7.6 mph 85% 0 in 265 W/m2
10:18 64.8 °F 60.3 °F 29.9 in NNW 5.4 mph 8.3 mph 85% 0 in 160 W/m2
10:23 65.1 °F 60.3 °F 29.9 in NNW 3.1 mph 8.3 mph 84% 0 in 158 W/m2
10:28 65.5 °F 60.4 °F 29.9 in NNW 3.1 mph 7.6 mph 84% 0 in 101 W/m2
10:33 66.2 °F 61 °F 29.9 in NW 4.5 mph 7.6 mph 83% 0 in 128 W/m2
10:38 67.8 °F 62.1 °F 29.9 in NW 3.1 mph 8.3 mph 82% 0 in 179 W/m2
10:43 69.1 °F 62.1 °F 29.9 in NNW 3.8 mph 9.2 mph 78% 0 in 412 W/m2
10:48 70.2 °F 61.9 °F 29.9 in North 5.4 mph 9.2 mph 75% 0 in 124 W/m2
10:53 70.2 °F 61.5 °F 29.9 in North 4.5 mph 9.2 mph 74% 0 in 476 W/m2
10:58 72.1 °F 63 °F 29.9 in NNW 3.1 mph 9.2 mph 73% 0 in 482 W/m2
11:03 73.2 °F 63 °F 29.9 in North 8.3 mph 10.7 mph 70% 0 in 462 W/m2
11:08 73.4 °F 63.1 °F 29.9 in North 2.2 mph 10.7 mph 70% 0 in 132 W/m2
11:13 74.7 °F 63.3 °F 29.9 in North 4.5 mph 10.7 mph 68% 0 in 312 W/m2
11:18 75.6 °F 63.3 °F 29.9 in North 5.4 mph 10.7 mph 66% 0 in 312 W/m2
11:23 75.6 °F 63 °F 29.9 in NNW 6 mph 10.7 mph 65% 0 in 457 W/m2
11:28 76.1 °F 63.5 °F 29.9 in NNW 6.9 mph 10.7 mph 65% 0 in 545 W/m2
11:33 76.6 °F 63.7 °F 29.9 in NNW 5.4 mph 9.8 mph 64% 0 in 641 W/m2
11:38 77.2 °F 62.8 °F 29.9 in NNW 6 mph 9.8 mph 61% 0 in 575 W/m2
11:43 76.3 °F 62.8 °F 29.9 in NNW 6 mph 9.8 mph 63% 0 in 693 W/m2
11:48 76.8 °F 64.2 °F 29.9 in NNW 4.5 mph 9.8 mph 65% 0 in 715 W/m2
11:53 77.5 °F 63.5 °F 29.9 in North 5.4 mph 9.8 mph 62% 0 in 453 W/m2
11:58 76.6 °F 63.7 °F 29.9 in North 6.9 mph 9.2 mph 64% 0 in 227 W/m2
12:03 75.9 °F 63.9 °F 29.9 in NNW 3.8 mph 9.2 mph 66% 0 in 285 W/m2
12:08 75.9 °F 63.3 °F 29.9 in NNW 3.8 mph 8.3 mph 65% 0 in 248 W/m2
12:13 76.1 °F 63.5 °F 29.9 in North 2.2 mph 7.6 mph 65% 0 in 255 W/m2
12:18 77 °F 64.4 °F 29.9 in North 0.7 mph 7.6 mph 65% 0 in 241 W/m2
12:23 77.2 °F 64 °F 29.9 in NNE 3.1 mph 5.4 mph 64% 0 in 304 W/m2
12:28 77.4 °F 64.2 °F 29.9 in North 2.2 mph 6.9 mph 64% 0 in 293 W/m2
12:33 77.7 °F 63.7 °F 29.9 in NNW 3.8 mph 8.3 mph 62% 0 in 279 W/m2
12:38 78.4 °F 63.3 °F 29.9 in NNW 3.1 mph 8.3 mph 60% 0 in 814 W/m2
12:43 79.5 °F 63.5 °F 29.9 in NNW 1.6 mph 7.6 mph 58% 0 in 542 W/m2
12:48 80.4 °F 63.3 °F 29.9 in NNW 4.5 mph 10.7 mph 56% 0 in 646 W/m2
12:53 81.3 °F 63.1 °F 29.9 in NW 5.4 mph 10.7 mph 54% 0 in 920 W/m2
12:58 81.1 °F 61.9 °F 29.9 in WNW 3.1 mph 9.2 mph 52% 0 in 291 W/m2
13:03 80.6 °F 63 °F 29.9 in NW 2.2 mph 7.6 mph 55% 0 in 304 W/m2
13:08 80.4 °F 62.8 °F 29.9 in WNW 0.7 mph 5.4 mph 55% 0 in 285 W/m2
13:13 80.2 °F 62.8 °F 29.9 in WNW 3.1 mph 6.9 mph 55% 0 in 483 W/m2
13:18 80.6 °F 63 °F 29.9 in NW 2.2 mph 6.9 mph 55% 0 in 568 W/m2
13:23 81 °F 62.2 °F 29.9 in NW 3.1 mph 6.9 mph 53% 0 in 312 W/m2
13:28 80.8 °F 62.6 °F 29.9 in NW 2.2 mph 6.9 mph 54% 0 in 506 W/m2
13:33 81.1 °F 63 °F 29.9 in WNW 3.8 mph 8.3 mph 54% 0 in 724 W/m2
13:38 81.3 °F 63.1 °F 29.9 in NW 8.3 mph 10.7 mph 54% 0 in 763 W/m2
13:43 80.2 °F 63.1 °F 29.8 in WNW 4.5 mph 10.7 mph 56% 0 in 513 W/m2
13:48 79.9 °F 62.8 °F 29.8 in WNW 6 mph 10.7 mph 56% 0 in 282 W/m2
13:53 79.3 °F 62.8 °F 29.8 in WNW 5.4 mph 10.7 mph 57% 0 in 249 W/m2
13:58 79 °F 63 °F 29.8 in WNW 4.5 mph 10.7 mph 58% 0 in 272 W/m2
14:03 79.5 °F 63 °F 29.8 in NW 3.8 mph 9.2 mph 57% 0 in 269 W/m2
14:08 79.7 °F 63.1 °F 29.8 in NW 3.1 mph 6.9 mph 57% 0 in 333 W/m2
14:13 79.9 °F 62.2 °F 29.8 in NW 3.8 mph 9.2 mph 55% 0 in 232 W/m2
14:18 80.1 °F 63 °F 29.8 in NNW 4.5 mph 9.2 mph 56% 0 in 218 W/m2
14:23 80.4 °F 63.9 °F 29.8 in North 5.4 mph 7.6 mph 57% 0 in 205 W/m2
14:28 80.4 °F 63.3 °F 29.8 in NNW 6 mph 11.4 mph 56% 0 in 331 W/m2
14:33 81 °F 62.8 °F 29.8 in NW 6 mph 12.1 mph 54% 0 in 563 W/m2
14:38 80.8 °F 62.1 °F 29.8 in NW 7.6 mph 15.9 mph 53% 0 in 291 W/m2
14:43 79.7 °F 62.1 °F 29.8 in NW 6.9 mph 15.9 mph 55% 0 in 158 W/m2
14:48 79.9 °F 63.3 °F 29.8 in NW 6 mph 12.1 mph 57% 0 in 529 W/m2
15:03 81.9 °F 63.1 °F 29.8 in NNW 2.2 mph 12.1 mph 53% 0 in 248 W/m2
15:08 80.8 °F 61.5 °F 29.8 in NW 4.5 mph 12.1 mph 52% 0 in 253 W/m2
15:13 80.2 °F 62.8 °F 29.8 in NNW 3.1 mph 8.3 mph 55% 0 in 224 W/m2
15:18 80.1 °F 62.4 °F 29.8 in NW 3.1 mph 8.3 mph 55% 0 in 212 W/m2
15:23 80.2 °F 63.1 °F 29.8 in NNW 4.5 mph 6.9 mph 56% 0 in 211 W/m2
15:28 80.1 °F 63.5 °F 29.8 in NNW 3.8 mph 8.3 mph 57% 0 in 238 W/m2
15:33 80.4 °F 63.3 °F 29.8 in NW 2.2 mph 8.3 mph 56% 0 in 227 W/m2
15:38 80.8 °F 63.7 °F 29.8 in NNW 2.2 mph 6 mph 56% 0 in 223 W/m2
15:43 80.6 °F 63 °F 29.8 in NNW 1.6 mph 6.9 mph 55% 0 in 201 W/m2
15:48 80.4 °F 63.3 °F 29.8 in NW 4.5 mph 6.9 mph 56% 0 in 154 W/m2
15:53 80.2 °F 64.2 °F 29.8 in NW 5.4 mph 6.9 mph 58% 0 in 137 W/m2
15:58 79.7 °F 63.1 °F 29.8 in NW 0.7 mph 8.3 mph 57% 0 in 135 W/m2
16:03 79.5 °F 63 °F 29.8 in NNW 3.1 mph 8.3 mph 57% 0 in 126 W/m2
16:08 79.3 °F 63.3 °F 29.8 in North 2.2 mph 6 mph 58% 0 in 95 W/m2
16:13 79 °F 63.5 °F 29.8 in North 3.1 mph 6 mph 59% 0 in 80 W/m2
16:18 78.6 °F 64 °F 29.8 in North 1.6 mph 6 mph 61% 0 in 91 W/m2
16:23 78.6 °F 64 °F 29.8 in North 3.1 mph 6 mph 61% 0 in 109 W/m2
16:28 78.6 °F 63.7 °F 29.8 in North 2.2 mph 6.9 mph 60% 0 in 120 W/m2
16:33 78.6 °F 64 °F 29.8 in NNW 1.6 mph 6.9 mph 61% 0 in 137 W/m2
16:38 78.6 °F 64.6 °F 29.8 in NNW 2.2 mph 5.4 mph 62% 0 in 148 W/m2
16:43 79 °F 64 °F 29.8 in Calm   5.4 mph 60% 0 in 151 W/m2
16:48 79 °F 64 °F 29.8 in North 0.7 mph 5.4 mph 60% 0 in 145 W/m2
16:53 79.3 °F 64.2 °F 29.8 in NNW 2.2 mph 4.5 mph 60% 0 in 124 W/m2
16:58 79.2 °F 65.1 °F 29.8 in NNW 1.6 mph 4.5 mph 62% 0 in 105 W/m2
17:03 79 °F 64.4 °F 29.8 in North 1.6 mph 4.5 mph 61% 0 in 84 W/m2
17:08 79 °F 64.4 °F 29.8 in Calm   3.8 mph 61% 0 in 73 W/m2
17:13 79 °F 64.9 °F 29.8 in Calm   3.1 mph 62% 0 in 93 W/m2
17:19 79 °F 64.9 °F 29.8 in Calm     62% 0 in 123 W/m2
17:24 79.3 °F 65.1 °F 29.8 in NNW 2.2 mph 3.8 mph 62% 0 in 122 W/m2
17:29 79.5 °F 64.9 °F 29.8 in North 1.6 mph 3.8 mph 61% 0 in 110 W/m2
17:34 79.7 °F 64.6 °F 29.8 in Calm   3.8 mph 60% 0 in 110 W/m2
17:39 79.7 °F 65.1 °F 29.8 in Calm   3.8 mph 61% 0 in 100 W/m2
17:44 79.7 °F 64.6 °F 29.8 in Calm   3.8 mph 60% 0 in 89 W/m2
17:49 79.5 °F 64.6 °F 29.8 in NNW 1.6 mph 4.5 mph 60% 0 in 71 W/m2
17:54 79 °F 64.4 °F 29.8 in Calm   4.5 mph 61% 0 in 64 W/m2
18:04 79 °F 64.9 °F 29.8 in Calm   3.1 mph 62% 0 in 66 W/m2
18:09 79 °F 64.9 °F 29.8 in Calm   2.2 mph 62% 0 in 108 W/m2
18:14 79.2 °F 65.1 °F 29.8 in Calm   2.2 mph 62% 0 in 54 W/m2
18:19 79 °F 65.5 °F 29.8 in Calm   3.1 mph 63% 0 in 35 W/m2
18:24 78.6 °F 65.5 °F 29.8 in Calm   3.1 mph 64% 0 in 37 W/m2
18:29 78.3 °F 65.1 °F 29.8 in Calm   3.1 mph 64% 0 in 34 W/m2
18:48 77.9 °F 66.6 °F 29.8 in Calm     68% 0 in 23 W/m2
18:53 77.4 °F 66 °F 29.8 in Calm     68% 0 in 27 W/m2
18:58 77 °F 66 °F 29.8 in Calm     69% 0 in 15 W/m2
19:03 76.5 °F 66 °F 29.8 in Calm     70% 0 in 12 W/m2
19:08 76.1 °F 66 °F 29.8 in Calm     71% 0 in 7 W/m2
19:13 75.7 °F 66.6 °F 29.8 in Calm     73% 0 in 5 W/m2
19:18 75.4 °F 66.2 °F 29.8 in Calm     73% 0 in 2 W/m2
19:38 74.7 °F 66.6 °F 29.8 in Calm     76% 0 in 0 W/m2
19:43 74.3 °F 66.4 °F 29.8 in Calm     76% 0 in 0 W/m2
19:48 74.3 °F 66.7 °F 29.8 in Calm     77% 0 in 0 W/m2
19:53 74.3 °F 66.7 °F 29.8 in Calm     77% 0 in 0 W/m2
19:58 74.1 °F 66.6 °F 29.8 in Calm     77% 0 in 0 W/m2
20:03 73.9 °F 66.4 °F 29.8 in Calm     77% 0 in 0 W/m2
20:08 73.9 °F 66.4 °F 29.8 in Calm     77% 0 in 0 W/m2
20:13 73.8 °F 66 °F 29.8 in Calm     77% 0 in 0 W/m2
20:18 73.4 °F 65.8 °F 29.8 in Calm     77% 0 in 0 W/m2
20:23 73.2 °F 65.7 °F 29.8 in Calm     77% 0 in 0 W/m2
20:28 73 °F 65.5 °F 29.8 in Calm     77% 0 in 0 W/m2
20:33 72.7 °F 65.1 °F 29.8 in Calm     77% 0 in 0 W/m2
20:38 72.7 °F 65.1 °F 29.8 in Calm   2.2 mph 77% 0 in 0 W/m2
20:43 72.9 °F 64.9 °F 29.8 in Calm   2.2 mph 76% 0 in 0 W/m2
20:48 73.2 °F 64.9 °F 29.8 in Calm   2.2 mph 75% 0 in 0 W/m2
20:53 73.2 °F 64.9 °F 29.8 in Calm   2.2 mph 75% 0 in 0 W/m2
20:58 73 °F 64.2 °F 29.8 in Calm   2.2 mph 74% 0 in 0 W/m2
21:03 73.2 °F 64.6 °F 29.8 in Calm   3.1 mph 74% 0 in 0 W/m2
21:08 73.2 °F 64.6 °F 29.8 in Calm   3.1 mph 74% 0 in 0 W/m2
21:13 73 °F 64.2 °F 29.9 in NNW 0.7 mph 2.2 mph 74% 0 in 0 W/m2
21:18 72.9 °F 64 °F 29.9 in Calm   2.2 mph 74% 0 in 0 W/m2
21:23 72.7 °F 63.9 °F 29.9 in Calm   1.6 mph 74% 0 in 0 W/m2
21:28 72.5 °F 63.9 °F 29.9 in Calm     74% 0 in 0 W/m2
21:33 72.3 °F 63.7 °F 29.9 in Calm     74% 0 in 0 W/m2
21:38 72 °F 64 °F 29.9 in South 3.8 mph 5.4 mph 76% 0 in 0 W/m2
21:53 70.5 °F 65.1 °F 29.9 in SSW 4.5 mph 8.3 mph 83% 0 in 0 W/m2
21:58 70.3 °F 65.3 °F 29.9 in SSW 2.2 mph 8.3 mph 84% 0 in 0 W/m2
22:03 70.3 °F 65.3 °F 29.9 in Calm   6 mph 84% 0 in 0 W/m2
22:08 70.3 °F 65.3 °F 29.9 in SSW 3.1 mph 3.8 mph 84% 0 in 0 W/m2
22:13 70.2 °F 65.1 °F 29.9 in Calm   3.8 mph 84% 0 in 0 W/m2
22:18 70.2 °F 64.8 °F 29.9 in SSE 1.6 mph 4.5 mph 83% 0 in 0 W/m2
22:23 70.2 °F 65.1 °F 29.9 in Calm   4.5 mph 84% 0 in 0 W/m2
22:28 70 °F 64.9 °F 29.9 in Calm   3.8 mph 84% 0 in 0 W/m2
22:33 69.6 °F 65.3 °F 29.9 in SSW 3.1 mph 5.4 mph 86% 0 in 0 W/m2
22:38 69.4 °F 65.5 °F 29.9 in SSW 2.2 mph 6 mph 87% 0 in 0 W/m2
22:43 69.3 °F 65.3 °F 29.9 in SW 3.8 mph 6 mph 87% 0 in 0 W/m2
22:48 69.3 °F 65.3 °F 29.9 in Calm   6 mph 87% 0 in 0 W/m2
22:53 69.3 °F 65.3 °F 29.9 in SSW 2.2 mph 5.4 mph 87% 0 in 0 W/m2
22:58 69.1 °F 65.1 °F 29.9 in SSE 3.1 mph 6 mph 87% 0 in 0 W/m2
23:03 68.9 °F 64.9 °F 29.9 in SE 4.5 mph 6 mph 87% 0 in 0 W/m2
23:08 68.7 °F 65.1 °F 29.9 in SE 0.7 mph 6.9 mph 88% 0 in 0 W/m2
23:13 68.5 °F 65.1 °F 29.9 in SSE 3.8 mph 6.9 mph 89% 0 in 0 W/m2
23:18 68.2 °F 64.8 °F 29.9 in South 1.6 mph 6.9 mph 89% 0 in 0 W/m2
23:23 68 °F 64.8 °F 29.9 in South 0.7 mph 6.9 mph 89% 0 in 0 W/m2
23:28 68 °F 64.8 °F 29.9 in Calm   6.9 mph 89% 0 in 0 W/m2
23:33 68 °F 64.8 °F 29.9 in SSW 3.1 mph 6.9 mph 89% 0 in 0 W/m2
23:38 68 °F 64.8 °F 29.9 in Calm   4.5 mph 89% 0 in 0 W/m2
23:43 68 °F 64.9 °F 29.9 in Calm   3.8 mph 90% 0 in 0 W/m2
23:48 67.8 °F 65.1 °F 29.9 in Calm     91% 0 in 0 W/m2
23:53 67.8 °F 65.1 °F 29.9 in Calm     91% 0 in 0 W/m2
23:58 67.6 °F 64.9 °F 29.9 in South 0.7 mph 6.9 mph 91% 0 in 0 W/m2
Northern Hawkes Bay. New Zealand Historic Data
Compliments of Weather Underground - 2 mb